createdAt,value
2022-09-06T00:01:18.719Z,1.30
2022-09-06T00:06:25.194Z,0.40
2022-09-06T00:08:59.561Z,1.00
2022-09-06T00:11:29.018Z,1.38
2022-09-06T00:13:58.143Z,1.30
2022-09-06T00:16:34.425Z,1.33
2022-09-06T00:19:03.678Z,1.20
2022-09-06T00:21:35.253Z,1.23
2022-09-06T00:24:10.436Z,1.08
2022-09-06T00:26:44.623Z,0.80
2022-09-06T00:29:13.951Z,1.30
2022-09-06T00:31:45.217Z,0.95
2022-09-06T00:34:14.372Z,1.25
2022-09-06T00:36:43.479Z,1.30
2022-09-06T00:39:17.726Z,1.20
2022-09-06T00:41:47.096Z,1.33
2022-09-06T00:44:16.207Z,1.00
2022-09-06T00:46:50.601Z,0.90
2022-09-06T00:49:25.916Z,1.40
2022-09-06T00:51:57.289Z,1.33
2022-09-06T00:54:32.619Z,1.10
2022-09-06T00:57:07.379Z,1.10
2022-09-06T00:59:41.897Z,1.15
2022-09-06T01:02:13.281Z,1.10
2022-09-06T01:04:47.704Z,1.15
2022-09-06T01:07:35.860Z,1.00
2022-09-06T01:10:27.601Z,1.08
2022-09-06T01:13:05.974Z,1.15
2022-09-06T01:15:43.183Z,1.20
2022-09-06T01:18:26.162Z,1.10
2022-09-06T01:21:09.316Z,1.08
2022-09-06T01:24:12.468Z,1.20
2022-09-06T01:27:06.131Z,1.25
2022-09-06T01:29:43.149Z,1.05
2022-09-06T01:32:28.269Z,1.20
2022-09-06T01:37:41.077Z,1.05
2022-09-06T01:40:10.987Z,0.90
2022-09-06T01:42:43.339Z,0.90
2022-09-06T01:45:18.942Z,1.23
2022-09-06T01:47:59.464Z,1.08
2022-09-06T01:50:58.239Z,1.20
2022-09-06T01:54:01.788Z,1.30
2022-09-06T01:56:40.075Z,1.45
2022-09-06T01:59:42.668Z,1.15
2022-09-06T02:02:19.851Z,1.20
2022-09-06T02:04:59.616Z,0.95
2022-09-06T02:07:31.677Z,1.10
2022-09-06T02:10:22.653Z,1.00
2022-09-06T02:12:55.656Z,0.80
2022-09-06T02:15:27.630Z,1.00
2022-09-06T02:18:02.777Z,0.90
2022-09-06T02:23:24.200Z,1.00
2022-09-06T02:26:01.397Z,1.35
2022-09-06T02:28:30.886Z,0.90
2022-09-06T02:31:04.728Z,1.17
2022-09-06T02:33:37.806Z,1.15
2022-09-06T02:36:10.966Z,1.10
2022-09-06T02:38:43.402Z,1.20
2022-09-06T02:41:14.536Z,1.20
2022-09-06T02:43:49.052Z,1.05
2022-09-06T02:46:18.350Z,1.23
2022-09-06T02:48:49.728Z,1.35
2022-09-06T02:51:20.217Z,1.00
2022-09-06T02:53:49.520Z,1.05
2022-09-06T02:56:18.792Z,1.30
2022-09-06T02:58:49.480Z,1.30
2022-09-06T03:01:18.566Z,1.15
2022-09-06T03:03:55.603Z,1.40
2022-09-06T03:08:53.574Z,1.73
2022-09-06T03:11:23.350Z,1.42
2022-09-06T03:13:52.831Z,1.17
2022-09-06T03:16:33.765Z,1.38
2022-09-06T03:19:05.598Z,1.55
2022-09-06T03:21:39.864Z,1.58
2022-09-06T03:24:09.286Z,1.50
2022-09-06T03:26:43.869Z,1.50
2022-09-06T03:29:13.097Z,1.40
2022-09-06T03:31:42.217Z,1.70
2022-09-06T03:34:13.567Z,1.83
2022-09-06T03:36:47.973Z,1.60
2022-09-06T03:39:22.334Z,1.70
2022-09-06T03:41:51.550Z,1.75
2022-09-06T03:44:20.624Z,1.85
2022-09-06T03:46:51.204Z,1.85
2022-09-06T03:49:22.486Z,1.90
2022-09-06T03:51:56.750Z,2.00
2022-09-06T03:54:28.117Z,2.25
2022-09-06T03:56:57.478Z,2.13
2022-09-06T03:59:26.556Z,2.10
2022-09-06T04:01:56.239Z,2.42
2022-09-06T04:04:27.425Z,2.28
2022-09-06T04:06:56.717Z,1.80
2022-09-06T04:09:26.075Z,1.40
2022-09-06T04:11:55.681Z,1.65
2022-09-06T04:14:24.962Z,1.77
2022-09-06T04:16:54.328Z,1.98
2022-09-06T04:19:23.603Z,1.58
2022-09-06T04:21:54.983Z,2.03
2022-09-06T04:24:30.775Z,2.03
2022-09-06T04:27:00.062Z,1.83
2022-09-06T04:29:30.700Z,1.80
2022-09-06T04:32:04.861Z,1.70
2022-09-06T04:34:39.143Z,1.60
2022-09-06T04:37:11.051Z,1.60
2022-09-06T04:39:40.410Z,1.58
2022-09-06T04:42:09.998Z,1.40
2022-09-06T04:44:39.291Z,1.52
2022-09-06T04:47:14.547Z,1.30
2022-09-06T04:49:44.128Z,1.30
2022-09-06T04:52:15.233Z,1.50
2022-09-06T04:54:44.623Z,1.30
2022-09-06T04:57:13.847Z,1.10
2022-09-06T05:02:17.921Z,0.90
2022-09-06T05:04:53.216Z,0.80
2022-09-06T05:07:24.530Z,0.88
2022-09-06T05:09:53.888Z,1.60
2022-09-06T05:12:23.242Z,1.33
2022-09-06T05:14:52.385Z,0.90
2022-09-06T05:17:21.516Z,0.88
2022-09-06T05:19:50.854Z,1.10
2022-09-06T05:22:20.172Z,0.98
2022-09-06T05:25:02.141Z,0.50
2022-09-06T05:27:32.823Z,0.63
2022-09-06T05:30:03.125Z,0.98
2022-09-06T05:32:33.614Z,0.95
2022-09-06T05:35:02.961Z,0.98
2022-09-06T05:37:42.231Z,0.60
2022-09-06T05:40:13.907Z,0.50
2022-09-06T05:42:43.386Z,0.60
2022-09-06T05:45:12.970Z,0.60
2022-09-06T05:47:42.186Z,0.55
2022-09-06T05:50:16.606Z,0.60
2022-09-06T05:52:47.137Z,0.88
2022-09-06T05:55:18.473Z,0.60
2022-09-06T05:57:52.730Z,0.82
2022-09-06T06:00:22.670Z,0.68
2022-09-06T06:02:52.137Z,0.80
2022-09-06T06:05:22.503Z,0.50
2022-09-06T06:07:51.749Z,0.93
2022-09-06T06:10:22.879Z,0.90
2022-09-06T06:12:52.172Z,0.70
2022-09-06T06:15:21.310Z,0.70
2022-09-06T06:17:51.028Z,0.95
2022-09-06T06:20:20.248Z,0.80
2022-09-06T06:22:49.570Z,1.10
2022-09-06T06:25:22.678Z,1.20
2022-09-06T06:27:54.039Z,1.20
2022-09-06T06:30:23.299Z,1.55
2022-09-06T06:32:52.406Z,1.42
2022-09-06T06:35:22.547Z,1.70
2022-09-06T06:37:51.776Z,1.35
2022-09-06T06:40:21.690Z,1.85
2022-09-06T06:42:50.745Z,1.92
2022-09-06T06:45:22.083Z,2.50
2022-09-06T06:47:53.370Z,2.28
2022-09-06T06:50:22.693Z,2.60
2022-09-06T06:52:51.771Z,3.20
2022-09-06T06:55:21.062Z,2.85
2022-09-06T06:57:50.141Z,3.30
2022-09-06T07:00:24.037Z,2.40
2022-09-06T07:02:56.432Z,2.60
2022-09-06T07:08:15.512Z,2.75
2022-09-06T07:10:44.742Z,1.77
2022-09-06T07:13:19.123Z,2.20
2022-09-06T07:15:50.286Z,1.90
2022-09-06T07:18:20.360Z,1.83
2022-09-06T07:26:34.046Z,2.70
2022-09-06T07:29:07.165Z,2.38
2022-09-06T07:34:37.413Z,1.80
2022-09-06T07:37:07.268Z,2.38
2022-09-06T07:39:36.663Z,2.30
2022-09-06T07:42:06.874Z,2.00
2022-09-06T07:44:41.034Z,2.30
2022-09-06T07:53:11.963Z,2.28
2022-09-06T07:55:43.007Z,2.40
2022-09-06T07:58:12.785Z,2.20
2022-09-06T08:00:42.888Z,2.45
2022-09-06T08:03:14.341Z,2.03
2022-09-06T08:11:23.232Z,2.13
2022-09-06T08:13:54.395Z,2.20
2022-09-06T08:16:25.126Z,2.40
2022-09-06T08:18:58.862Z,2.60
2022-09-06T08:21:29.991Z,2.55
2022-09-06T08:24:01.626Z,2.25
2022-09-06T08:26:33.131Z,1.77
2022-09-06T08:29:05.556Z,2.38
2022-09-06T08:31:36.144Z,2.00
2022-09-06T08:34:08.122Z,2.00
2022-09-06T08:39:11.117Z,2.67
2022-09-06T08:41:50.887Z,1.73
2022-09-06T08:47:16.503Z,1.80
2022-09-06T08:49:52.497Z,1.40
2022-09-06T08:53:17.145Z,1.67
2022-09-06T08:55:54.650Z,2.40
2022-09-06T08:58:45.312Z,1.58
2022-09-06T09:01:18.673Z,1.23
2022-09-06T09:03:50.908Z,1.50
2022-09-06T09:06:29.196Z,1.50
2022-09-06T09:09:06.100Z,1.50
2022-09-06T09:11:37.477Z,1.42
2022-09-06T09:14:14.084Z,1.52
2022-09-06T09:16:43.526Z,1.60
2022-09-06T09:19:12.979Z,1.20
2022-09-06T09:21:50.042Z,1.55
2022-09-06T09:24:19.237Z,0.93
2022-09-06T09:26:58.378Z,1.30
2022-09-06T09:29:30.281Z,1.10
2022-09-06T09:32:06.453Z,1.10
2022-09-06T09:34:37.622Z,1.10
2022-09-06T09:42:44.642Z,1.13
2022-09-06T09:45:29.148Z,1.30
2022-09-06T09:47:59.094Z,1.00
2022-09-06T09:50:31.016Z,1.50
2022-09-06T09:53:09.769Z,1.30
2022-09-06T09:55:39.369Z,1.40
2022-09-06T09:58:17.584Z,1.65
2022-09-06T10:00:46.969Z,1.05
2022-09-06T10:03:18.651Z,1.00
2022-09-06T10:06:02.420Z,1.40
2022-09-06T10:08:36.246Z,1.08
2022-09-06T10:11:05.825Z,0.90
2022-09-06T10:13:36.113Z,1.27
2022-09-06T10:16:06.132Z,1.13
2022-09-06T10:18:37.472Z,1.20
2022-09-06T10:21:13.047Z,1.00
2022-09-06T10:26:55.742Z,1.27
2022-09-06T10:29:36.524Z,1.13
2022-09-06T10:32:30.804Z,1.20
2022-09-06T10:35:11.196Z,1.20
2022-09-06T10:37:50.396Z,1.05
2022-09-06T10:40:35.125Z,0.95
2022-09-06T10:43:08.402Z,1.15
2022-09-06T10:45:47.780Z,1.00
2022-09-06T10:48:33.262Z,1.20
2022-09-06T10:51:08.858Z,1.10
2022-09-06T10:53:46.399Z,1.40
2022-09-06T10:56:22.005Z,0.85
2022-09-06T11:01:58.698Z,0.95
2022-09-06T11:04:33.476Z,1.20
2022-09-06T11:07:07.102Z,1.00
2022-09-06T11:09:41.381Z,1.08
2022-09-06T11:12:17.927Z,1.15
2022-09-06T11:14:48.352Z,1.20
2022-09-06T11:17:28.109Z,1.38
2022-09-06T11:20:08.802Z,1.02
2022-09-06T11:23:03.225Z,1.17
2022-09-06T11:25:59.785Z,1.13
2022-09-06T11:28:37.423Z,0.80
2022-09-06T11:31:08.379Z,1.05
2022-09-06T11:33:39.504Z,1.05
2022-09-06T11:36:32.008Z,0.90
2022-09-06T11:39:04.330Z,1.00
2022-09-06T11:41:36.324Z,1.10
2022-09-06T11:44:08.330Z,1.30
2022-09-06T11:47:01.021Z,1.20
2022-09-06T11:49:36.873Z,1.27
2022-09-06T11:52:35.701Z,1.00
2022-09-06T11:55:05.444Z,0.90
2022-09-06T11:57:34.718Z,1.00
2022-09-06T12:00:23.965Z,1.10
2022-09-06T12:02:53.789Z,1.20
2022-09-06T12:05:27.128Z,1.45
2022-09-06T12:08:16.006Z,1.00
2022-09-06T12:10:57.348Z,1.15
2022-09-06T12:13:43.139Z,1.48
2022-09-06T12:16:16.473Z,1.60
2022-09-06T12:19:04.407Z,1.30
2022-09-06T12:21:51.952Z,1.00
2022-09-06T12:24:50.967Z,1.13
2022-09-06T12:27:22.073Z,1.30
2022-09-06T12:29:54.568Z,1.25
2022-09-06T12:32:36.986Z,1.20
2022-09-06T12:38:02.992Z,1.10
2022-09-06T12:40:35.760Z,0.90
2022-09-06T12:43:07.133Z,1.10
2022-09-06T12:45:36.410Z,1.43
2022-09-06T12:48:10.415Z,1.30
2022-09-06T12:57:17.130Z,1.30
2022-09-06T12:59:50.901Z,1.25
2022-09-06T13:02:24.579Z,1.00
2022-09-06T13:05:00.826Z,1.20
2022-09-06T13:07:31.330Z,1.38
2022-09-06T13:10:02.298Z,1.10
2022-09-06T13:12:37.147Z,1.25
2022-09-06T13:15:13.425Z,1.30
2022-09-06T13:17:54.335Z,1.52
2022-09-06T13:20:27.381Z,1.58
2022-09-06T13:23:09.208Z,1.80
2022-09-06T13:25:49.936Z,1.65
2022-09-06T13:28:31.930Z,1.90
2022-09-06T13:31:07.567Z,1.52
2022-09-06T13:36:24.331Z,1.25
2022-09-06T13:38:54.170Z,1.10
2022-09-06T13:41:43.937Z,1.30
2022-09-06T13:44:30.678Z,1.10
2022-09-06T13:47:00.256Z,1.40
2022-09-06T13:49:29.936Z,1.20
2022-09-06T13:52:02.041Z,1.20
2022-09-06T13:54:31.883Z,1.30
2022-09-06T13:57:06.252Z,1.40
2022-09-06T13:59:37.861Z,1.45
2022-09-06T14:02:10.048Z,1.30
2022-09-06T14:04:40.020Z,1.50
2022-09-06T14:07:09.293Z,1.45
2022-09-06T14:09:39.077Z,1.55
2022-09-06T14:12:21.526Z,1.27
2022-09-06T14:15:02.390Z,1.73
2022-09-06T14:20:09.084Z,1.60
2022-09-06T14:22:38.688Z,1.55
2022-09-06T14:25:09.101Z,1.67
2022-09-06T14:27:38.304Z,2.00
2022-09-06T14:30:11.040Z,2.00
2022-09-06T14:32:40.247Z,2.30
2022-09-06T14:35:10.377Z,2.03
2022-09-06T14:37:44.738Z,1.77
2022-09-06T14:40:26.810Z,1.95
2022-09-06T14:45:28.498Z,1.75
2022-09-06T14:50:27.039Z,2.15
2022-09-06T14:52:56.438Z,1.98
2022-09-06T14:55:27.653Z,2.33
2022-09-06T14:57:56.955Z,2.50
2022-09-06T15:00:28.309Z,2.45
2022-09-06T15:02:57.623Z,2.75
2022-09-06T15:05:26.882Z,2.67
2022-09-06T15:07:56.122Z,2.35
2022-09-06T15:10:26.037Z,2.45
2022-09-06T15:12:56.012Z,2.30
2022-09-06T15:15:25.429Z,2.42
2022-09-06T15:17:57.192Z,2.28
2022-09-06T15:23:21.699Z,2.00
2022-09-06T15:25:56.722Z,2.33
2022-09-06T15:28:25.959Z,2.38
2022-09-06T15:31:01.735Z,2.67
2022-09-06T15:33:35.193Z,2.38
2022-09-06T15:36:07.757Z,2.10
2022-09-06T15:38:37.690Z,2.38
2022-09-06T15:41:08.858Z,2.38
2022-09-06T15:43:41.708Z,2.58
2022-09-06T15:46:11.601Z,2.17
2022-09-06T15:48:45.789Z,2.10
2022-09-06T15:51:22.086Z,2.30
2022-09-06T15:53:51.540Z,2.08
2022-09-06T15:56:20.752Z,1.55
2022-09-06T15:58:55.194Z,2.00
2022-09-06T16:01:32.353Z,2.17
2022-09-06T16:04:05.806Z,2.33
2022-09-06T16:06:37.791Z,1.88
2022-09-06T16:09:15.179Z,1.52
2022-09-06T16:11:44.753Z,1.23
2022-09-06T16:14:15.755Z,1.55
2022-09-06T16:16:45.206Z,1.20
2022-09-06T16:19:18.042Z,1.23
2022-09-06T16:21:47.663Z,1.10
2022-09-06T16:24:18.134Z,1.10
2022-09-06T16:26:53.460Z,1.15
2022-09-06T16:29:27.939Z,1.30
2022-09-06T16:31:59.704Z,1.08
2022-09-06T16:37:08.931Z,1.00
2022-09-06T16:39:38.690Z,1.40
2022-09-06T16:42:08.521Z,1.10
2022-09-06T16:44:40.145Z,0.90
2022-09-06T16:47:16.764Z,1.10
2022-09-06T16:49:48.716Z,1.20
2022-09-06T16:52:18.218Z,1.50
2022-09-06T16:54:47.931Z,1.40
2022-09-06T16:57:17.144Z,1.10
2022-09-06T16:59:46.374Z,1.20
2022-09-06T17:02:15.959Z,1.10
2022-09-06T17:04:45.382Z,1.40
2022-09-06T17:07:17.979Z,1.17
2022-09-06T17:09:47.615Z,1.42
2022-09-06T17:12:16.915Z,1.52
2022-09-06T17:14:46.257Z,1.50
2022-09-06T17:19:46.705Z,1.40
2022-09-06T17:22:17.847Z,1.30
2022-09-06T17:24:52.397Z,1.15
2022-09-06T17:27:21.746Z,1.35
2022-09-06T17:29:51.398Z,0.90
2022-09-06T17:32:20.689Z,0.90
2022-09-06T17:34:49.966Z,0.90
2022-09-06T17:37:23.194Z,1.20
2022-09-06T17:39:52.525Z,1.38
2022-09-06T17:42:21.794Z,1.30
2022-09-06T17:44:50.984Z,1.00
2022-09-06T17:47:20.266Z,1.05
2022-09-06T17:49:49.743Z,1.40
2022-09-06T17:52:21.021Z,1.33
2022-09-06T17:54:50.527Z,1.20
2022-09-06T17:57:19.744Z,1.30
2022-09-06T17:59:54.350Z,1.45
2022-09-06T18:02:26.261Z,1.30
2022-09-06T18:05:01.971Z,1.17
2022-09-06T18:07:34.543Z,1.25
2022-09-06T18:10:03.989Z,1.60
2022-09-06T18:12:33.950Z,1.35
2022-09-06T18:15:04.981Z,1.60
2022-09-06T18:20:19.958Z,1.30
2022-09-06T18:22:51.226Z,1.63
2022-09-06T18:25:21.066Z,2.00
2022-09-06T18:27:58.704Z,1.88
2022-09-06T18:30:30.875Z,1.80
2022-09-06T18:33:00.410Z,1.55
2022-09-06T18:35:42.521Z,1.90
2022-09-06T18:38:14.617Z,1.50
2022-09-06T18:40:52.333Z,1.80
2022-09-06T18:43:22.166Z,1.83
2022-09-06T18:45:52.088Z,2.10
2022-09-06T18:48:26.919Z,1.90
2022-09-06T18:50:59.760Z,2.25
2022-09-06T18:53:32.162Z,1.92
2022-09-06T18:56:01.927Z,1.98
2022-09-06T18:58:31.310Z,2.25
2022-09-06T19:01:06.232Z,1.90
2022-09-06T19:03:36.675Z,1.65
2022-09-06T19:06:07.413Z,2.10
2022-09-06T19:08:39.495Z,1.88
2022-09-06T19:11:18.531Z,1.85
2022-09-06T19:13:51.725Z,1.60
2022-09-06T19:16:22.078Z,2.10
2022-09-06T19:18:54.829Z,1.75
2022-09-06T19:21:27.573Z,2.05
2022-09-06T19:24:14.163Z,1.70
2022-09-06T19:26:46.555Z,2.03
2022-09-06T19:29:17.538Z,1.90
2022-09-06T19:31:54.511Z,2.10
2022-09-06T19:34:29.059Z,1.92
2022-09-06T19:36:58.348Z,1.98
2022-09-06T19:39:36.233Z,2.20
2022-09-06T19:42:11.869Z,1.90
2022-09-06T19:44:46.063Z,1.67
2022-09-06T19:47:15.515Z,1.83
2022-09-06T19:49:44.746Z,1.90
2022-09-06T19:52:14.708Z,2.33
2022-09-06T19:54:46.182Z,1.73
2022-09-06T19:57:15.431Z,1.52
2022-09-06T19:59:44.554Z,2.17
2022-09-06T20:02:14.174Z,1.95
2022-09-06T20:04:43.437Z,1.90
2022-09-06T20:07:12.718Z,1.90
2022-09-06T20:09:42.035Z,1.98
2022-09-06T20:12:13.265Z,2.33
2022-09-06T20:14:42.877Z,2.03
2022-09-06T20:17:32.967Z,1.77
2022-09-06T20:20:02.292Z,2.40
2022-09-06T20:22:32.820Z,2.35
2022-09-06T20:25:02.149Z,2.42
2022-09-06T20:27:34.602Z,2.80
2022-09-06T20:30:09.964Z,2.15
2022-09-06T20:32:39.260Z,2.45
2022-09-06T20:35:10.263Z,2.03
2022-09-06T20:37:47.170Z,2.55
2022-09-06T20:40:16.734Z,2.40
2022-09-06T20:42:48.075Z,2.03
2022-09-06T20:45:18.824Z,2.90
2022-09-06T20:47:56.529Z,2.40
2022-09-06T20:50:30.261Z,2.47
2022-09-06T20:52:59.755Z,2.13
2022-09-06T20:55:29.115Z,1.90
2022-09-06T20:58:00.627Z,2.38
2022-09-06T21:00:30.095Z,2.53
2022-09-06T21:03:00.777Z,2.13
2022-09-06T21:05:30.575Z,2.50
2022-09-06T21:07:59.874Z,2.38
2022-09-06T21:10:36.080Z,2.60
2022-09-06T21:13:07.461Z,2.40
2022-09-06T21:15:43.060Z,2.20
2022-09-06T21:18:13.619Z,2.85
2022-09-06T21:20:57.729Z,2.40
2022-09-06T21:23:28.215Z,2.30
2022-09-06T21:25:58.806Z,2.20
2022-09-06T21:28:36.646Z,2.20
2022-09-06T21:31:08.725Z,2.10
2022-09-06T21:33:40.121Z,2.28
2022-09-06T21:36:11.085Z,2.22
2022-09-06T21:38:41.943Z,2.13
2022-09-06T21:41:12.361Z,2.22
2022-09-06T21:43:43.830Z,2.42
2022-09-06T21:46:31.746Z,2.33
2022-09-06T21:49:06.795Z,1.92
2022-09-06T21:51:41.943Z,2.60
2022-09-06T21:54:11.299Z,1.67
2022-09-06T21:56:52.073Z,2.40
2022-09-06T21:59:23.539Z,2.30
2022-09-06T22:01:59.612Z,2.25
2022-09-06T22:04:29.195Z,2.38
2022-09-06T22:06:58.341Z,2.35
2022-09-06T22:09:32.784Z,2.58
2022-09-06T22:12:02.150Z,2.28
2022-09-06T22:14:38.517Z,2.20
2022-09-06T22:17:07.829Z,2.75
2022-09-06T22:19:37.016Z,2.45
2022-09-06T22:22:06.364Z,2.53
2022-09-06T22:24:35.723Z,2.20
2022-09-06T22:27:10.078Z,2.10
2022-09-06T22:29:41.385Z,2.53
2022-09-06T22:32:19.022Z,2.42
2022-09-06T22:37:18.421Z,1.90
2022-09-06T22:39:47.929Z,1.88
2022-09-06T22:42:17.271Z,1.90
2022-09-06T22:44:53.745Z,2.10
2022-09-06T22:47:23.383Z,2.00
2022-09-06T22:49:52.629Z,1.80
2022-09-06T22:52:22.434Z,2.40
2022-09-06T22:54:51.578Z,2.10
2022-09-06T22:57:20.849Z,1.80
2022-09-06T22:59:50.035Z,2.10
2022-09-06T23:02:26.230Z,2.13
2022-09-06T23:04:56.379Z,2.22
2022-09-06T23:07:25.907Z,1.75
2022-09-06T23:09:55.132Z,2.58
2022-09-06T23:12:24.367Z,2.25
2022-09-06T23:14:58.498Z,2.22
2022-09-06T23:17:31.317Z,2.40
2022-09-06T23:20:05.943Z,2.08
2022-09-06T23:22:41.040Z,1.50
2022-09-06T23:25:11.334Z,2.80
2022-09-06T23:27:40.480Z,2.40
2022-09-06T23:30:11.188Z,2.38
2022-09-06T23:32:42.445Z,2.92
2022-09-06T23:35:12.304Z,2.45
2022-09-06T23:37:41.759Z,2.20
2022-09-06T23:40:12.125Z,2.63
2022-09-06T23:42:41.497Z,2.58
2022-09-06T23:45:11.770Z,2.50
2022-09-06T23:47:43.068Z,2.50
2022-09-06T23:50:12.534Z,2.47
2022-09-06T23:52:52.286Z,2.88
2022-09-06T23:55:21.497Z,2.70
2022-09-06T23:57:50.698Z,2.10
